createdAt,value
2022-12-08T00:05:03.187Z,9.59
2022-12-08T00:10:48.736Z,9.59
2022-12-08T00:14:44.309Z,8.81
2022-12-08T00:19:16.708Z,8.81
2022-12-08T00:24:27.127Z,10.9
2022-12-08T00:29:38.145Z,10.9
2022-12-08T00:34:47.899Z,9.11
2022-12-08T00:39:57.675Z,9.11
2022-12-08T00:45:06.177Z,9.9
2022-12-08T00:50:14.626Z,9.9
2022-12-08T00:55:23.085Z,9.19
2022-12-08T01:00:33.543Z,9.19
2022-12-08T01:05:43.265Z,9.57
2022-12-08T01:10:53.596Z,9.57
2022-12-08T01:16:00.863Z,10.93
2022-12-08T01:21:09.969Z,10.93
2022-12-08T01:26:19.774Z,11.41
2022-12-08T01:31:28.874Z,11.41
2022-12-08T01:36:36.702Z,9.48
2022-12-08T01:41:45.191Z,9.48
2022-12-08T01:46:54.944Z,8.51
2022-12-08T01:52:04.076Z,8.51
2022-12-08T01:57:12.574Z,9.57
2022-12-08T02:02:22.731Z,9.57
2022-12-08T02:07:32.091Z,9.13
2022-12-08T02:12:41.193Z,9.13
2022-12-08T02:17:49.657Z,8.15
2022-12-08T02:22:58.808Z,8.15
2022-12-08T02:28:07.906Z,8.38
2022-12-08T02:33:18.341Z,8.38
2022-12-08T02:38:28.091Z,8.36
2022-12-08T02:43:37.172Z,8.36
2022-12-08T02:48:46.941Z,9.76
2022-12-08T02:53:56.858Z,8.91
2022-12-08T02:59:06.467Z,8.91
2022-12-08T03:04:16.225Z,9.84
2022-12-08T03:09:26.618Z,9.84
2022-12-08T03:14:37.059Z,10.54
2022-12-08T03:19:46.171Z,10.54
2022-12-08T03:24:58.144Z,9.26
2022-12-08T03:30:14.310Z,9.26
2022-12-08T03:35:29.225Z,10.15
2022-12-08T03:40:46.027Z,10.15
2022-12-08T03:46:01.583Z,10.78
2022-12-08T03:51:15.857Z,10.78
2022-12-08T03:56:31.910Z,10.29
2022-12-08T04:01:48.118Z,10.29
2022-12-08T04:07:04.256Z,9.81
2022-12-08T04:12:19.748Z,9.81
2022-12-08T04:17:35.953Z,9.69
2022-12-08T04:22:51.465Z,9.69
2022-12-08T04:28:06.318Z,8.83
2022-12-08T04:33:21.274Z,8.83
2022-12-08T04:37:47.376Z,9.79
2022-12-08T04:42:19.102Z,9.79
2022-12-08T04:47:28.882Z,9.19
2022-12-08T04:52:38.627Z,9.19
2022-12-08T04:57:47.781Z,8.45
2022-12-08T05:02:56.674Z,8.45
2022-12-08T05:08:05.161Z,9.44
2022-12-08T05:13:14.449Z,9.44
2022-12-08T05:18:22.952Z,8.66
2022-12-08T05:23:32.057Z,8.66
2022-12-08T05:28:44.698Z,7.9
2022-12-08T05:33:49.673Z,7.9
2022-12-08T05:38:58.141Z,8.39
2022-12-08T05:44:06.678Z,8.39
2022-12-08T05:49:15.733Z,7.72
2022-12-08T05:54:26.183Z,9.06
2022-12-08T05:59:34.631Z,9.06
2022-12-08T06:04:43.103Z,8.41
2022-12-08T06:09:51.595Z,8.41
2022-12-08T06:15:00.728Z,7.88
2022-12-08T06:20:09.196Z,7.88
2022-12-08T06:25:17.655Z,7.92
2022-12-08T06:30:26.809Z,7.92
2022-12-08T06:35:35.278Z,8.13
2022-12-08T06:40:43.784Z,8.13
2022-12-08T06:45:53.239Z,7.75
2022-12-08T06:51:01.369Z,7.75
2022-12-08T06:56:09.850Z,7.88
2022-12-08T07:01:20.131Z,7.88
2022-12-08T07:06:31.585Z,7.81
2022-12-08T07:11:47.096Z,7.81
2022-12-08T07:17:02.005Z,7.56
2022-12-08T07:22:17.932Z,7.56
2022-12-08T07:27:33.012Z,7.72
2022-12-08T07:32:48.735Z,7.72
2022-12-08T07:38:05.993Z,7.49
2022-12-08T07:43:31.114Z,7.49
2022-12-08T07:48:46.629Z,7.41
2022-12-08T07:54:02.185Z,7.41
2022-12-08T07:59:17.678Z,7.43
2022-12-08T08:03:07.503Z,7.43
2022-12-08T08:08:15.976Z,7.5
2022-12-08T08:13:23.425Z,7.5
2022-12-08T08:18:33.205Z,7.56
2022-12-08T08:23:42.301Z,7.56
2022-12-08T08:28:51.519Z,7.46
2022-12-08T08:34:01.840Z,7.46
2022-12-08T08:39:10.305Z,7.58
2022-12-08T08:44:20.768Z,7.58
2022-12-08T08:49:29.822Z,7.41
2022-12-08T08:54:39.639Z,7.41
2022-12-08T08:59:47.451Z,7.51
2022-12-08T09:04:56.307Z,7.5
2022-12-08T09:10:07.636Z,7.5
2022-12-08T09:15:16.067Z,7.54
2022-12-08T09:20:25.856Z,7.54
2022-12-08T09:25:34.965Z,7.53
2022-12-08T09:30:44.086Z,7.53
2022-12-08T09:35:53.243Z,7.54
2022-12-08T09:41:02.956Z,7.54
2022-12-08T09:46:13.828Z,7.54
2022-12-08T09:51:23.095Z,7.54
2022-12-08T09:56:33.078Z,7.55
2022-12-08T10:01:42.342Z,7.55
2022-12-08T10:06:49.835Z,7.58
2022-12-08T10:11:58.331Z,7.58
2022-12-08T10:17:08.532Z,7.7
2022-12-08T10:22:44.428Z,7.7
2022-12-08T10:27:57.945Z,7.59
2022-12-08T10:33:05.108Z,7.59
2022-12-08T10:37:45.204Z,7.87
2022-12-08T10:42:54.960Z,7.87
2022-12-08T10:48:04.765Z,7.75
2022-12-08T10:53:13.827Z,7.75
2022-12-08T10:58:24.271Z,7.93
2022-12-08T11:03:33.348Z,7.93
2022-12-08T11:08:42.460Z,7.8
2022-12-08T11:13:50.979Z,7.8
2022-12-08T11:19:00.706Z,7.94
2022-12-08T11:24:11.753Z,7.94
2022-12-08T11:29:21.516Z,7.84
2022-12-08T11:34:46.873Z,7.84
2022-12-08T11:39:37.826Z,7.89
2022-12-08T11:44:46.318Z,7.89
2022-12-08T11:50:18.090Z,7.75
2022-12-08T11:55:25.940Z,7.75
2022-12-08T12:00:35.064Z,7.92
2022-12-08T12:10:54.767Z,8.1
2022-12-08T12:16:03.682Z,8.07
2022-12-08T12:21:12.798Z,8.07
2022-12-08T12:26:22.549Z,7.99
2022-12-08T12:27:41.016Z,7.99
2022-12-08T12:32:48.854Z,7.99
2022-12-08T12:37:58.650Z,8.03
2022-12-08T12:43:07.740Z,8.03
2022-12-08T12:48:14.943Z,8
2022-12-08T12:53:23.420Z,8
2022-12-08T12:58:33.215Z,7.82
2022-12-08T13:03:42.323Z,7.82
2022-12-08T13:08:52.118Z,7.89
2022-12-08T13:14:00.549Z,7.89
2022-12-08T13:19:10.326Z,7.87
2022-12-08T13:24:20.100Z,7.87
2022-12-08T13:29:29.912Z,7.95
2022-12-08T13:34:38.343Z,7.95
2022-12-08T13:39:46.176Z,7.72
2022-12-08T13:47:39.159Z,7.72
2022-12-08T14:00:22.640Z,7.9
2022-12-08T14:06:15.395Z,7.9
2022-12-08T14:10:41.507Z,8.01
2022-12-08T14:15:51.612Z,7.91
2022-12-08T14:21:22.477Z,7.91
2022-12-08T14:26:09.494Z,8.53
2022-12-08T14:31:19.077Z,8.53
2022-12-08T14:36:28.386Z,8.13
2022-12-08T14:41:38.848Z,8.13
2022-12-08T14:46:49.806Z,8.06
2022-12-08T14:51:57.698Z,8.06
2022-12-08T14:57:06.786Z,8.08
2022-12-08T15:02:15.265Z,8.08
2022-12-08T15:07:24.416Z,7.72
2022-12-08T15:12:34.135Z,7.72
2022-12-08T15:17:43.938Z,7.41
2022-12-08T15:22:52.452Z,7.41
2022-12-08T15:28:01.626Z,7.37
2022-12-08T15:33:10.718Z,7.37
2022-12-08T15:38:19.108Z,7.62
2022-12-08T15:43:28.233Z,7.62
2022-12-08T15:48:36.742Z,7.66
2022-12-08T15:53:45.205Z,7.66
2022-12-08T15:58:59.508Z,7.6
2022-12-08T16:07:21.616Z,7.6
2022-12-08T16:09:14.806Z,7.81
2022-12-08T16:16:02.019Z,7.81
2022-12-08T16:19:28.874Z,7.81
2022-12-08T16:24:38.023Z,7.81
2022-12-08T16:29:46.481Z,7.77
2022-12-08T16:34:56.227Z,7.77
2022-12-08T16:40:05.822Z,7.92
2022-12-08T16:45:14.496Z,7.92
2022-12-08T16:50:25.498Z,8.02
2022-12-08T16:55:34.001Z,8.02
2022-12-08T17:00:44.145Z,8.24
2022-12-08T17:05:52.228Z,8.24
2022-12-08T17:11:01.359Z,8.34
2022-12-08T17:16:09.479Z,8.15
2022-12-08T17:21:21.498Z,8.15
2022-12-08T17:26:30.011Z,8.2
2022-12-08T17:31:39.580Z,8.2
2022-12-08T17:36:48.896Z,8.06
2022-12-08T17:41:59.256Z,8.06
2022-12-08T17:47:08.426Z,8.12
2022-12-08T17:52:18.155Z,8.12
2022-12-08T17:57:27.938Z,8.11
2022-12-08T18:02:37.200Z,8.11
2022-12-08T18:07:47.783Z,7.95
2022-12-08T18:12:57.179Z,7.95
2022-12-08T18:18:06.294Z,7.73
2022-12-08T18:23:14.806Z,7.73
2022-12-08T18:28:24.549Z,7.89
2022-12-08T18:33:32.388Z,7.89
2022-12-08T18:38:40.906Z,8.14
2022-12-08T18:43:49.515Z,8.14
2022-12-08T18:48:58.472Z,7.94
2022-12-08T18:54:07.616Z,7.94
2022-12-08T18:59:16.059Z,7.63
2022-12-08T19:04:38.959Z,7.63
2022-12-08T19:09:33.028Z,8.14
2022-12-08T19:14:42.170Z,8.14
2022-12-08T19:19:50.640Z,8.08
2022-12-08T19:25:01.078Z,8.08
2022-12-08T19:30:10.523Z,8.42
2022-12-08T19:35:19.289Z,8.42
2022-12-08T19:40:29.090Z,8.21
2022-12-08T19:45:39.309Z,8.21
2022-12-08T19:50:47.953Z,8
2022-12-08T19:55:57.031Z,8
2022-12-08T20:01:08.782Z,8.28
2022-12-08T20:06:17.199Z,8.28
2022-12-08T20:11:25.683Z,8.36
2022-12-08T20:16:36.661Z,8.19
2022-12-08T20:21:45.241Z,8.19
2022-12-08T20:26:54.402Z,8.15
2022-12-08T20:32:04.776Z,8.15
2022-12-08T20:37:12.594Z,8.34
2022-12-08T20:42:23.069Z,8.34
2022-12-08T20:47:33.157Z,8.37
2022-12-08T20:52:42.831Z,8.37
2022-12-08T20:57:53.217Z,9.51
2022-12-08T21:03:04.168Z,9.51
2022-12-08T21:08:13.478Z,8.06
2022-12-08T21:13:21.513Z,8.06
2022-12-08T21:18:40.616Z,8.17
2022-12-08T21:23:40.194Z,8.17
2022-12-08T21:28:49.266Z,8.04
2022-12-08T21:33:58.873Z,8.04
2022-12-08T21:39:08.621Z,8.2
2022-12-08T21:44:17.433Z,8.2
2022-12-08T21:49:25.730Z,8.33
2022-12-08T21:54:34.718Z,8.33
2022-12-08T21:59:44.724Z,8.27
2022-12-08T22:04:56.611Z,8.27
2022-12-08T22:10:07.610Z,8.24
2022-12-08T22:15:13.850Z,8.24
2022-12-08T22:20:22.365Z,8.28
2022-12-08T22:25:32.166Z,8.28
2022-12-08T22:30:41.043Z,8.6
2022-12-08T22:35:50.744Z,8.6
2022-12-08T22:41:00.596Z,8.48
2022-12-08T22:46:13.090Z,8.48
2022-12-08T22:51:17.611Z,8.8
2022-12-08T22:56:25.987Z,8.8
2022-12-08T23:01:36.286Z,8.59
2022-12-08T23:06:45.118Z,8.59
2022-12-08T23:11:55.948Z,8.66
2022-12-08T23:17:07.193Z,8.58
2022-12-08T23:22:15.593Z,8.58
2022-12-08T23:27:23.897Z,8.92
2022-12-08T23:32:33.627Z,8.92
2022-12-08T23:37:43.415Z,8.28
2022-12-08T23:42:53.445Z,8.28
2022-12-08T23:48:02.931Z,8.34
2022-12-08T23:53:11.573Z,8.34
2022-12-08T23:58:21.131Z,8.42
